createdAt,value
2018-09-28T00:01:46.733Z,98244.00
2018-09-28T00:04:17.312Z,98239.00
2018-09-28T00:06:47.860Z,98240.00
2018-09-28T00:09:18.259Z,98236.00
2018-09-28T00:11:48.827Z,98236.00
2018-09-28T00:14:19.450Z,98229.00
2018-09-28T00:16:49.984Z,98230.00
2018-09-28T00:19:20.627Z,98230.00
2018-09-28T00:21:50.998Z,98226.00
2018-09-28T00:24:21.188Z,98226.00
2018-09-28T00:26:51.547Z,98223.00
2018-09-28T00:29:21.871Z,98220.00
2018-09-28T00:31:52.257Z,98213.00
2018-09-28T00:34:29.151Z,98211.00
2018-09-28T00:36:59.699Z,98211.00
2018-09-28T00:39:30.039Z,98201.00
2018-09-28T00:42:00.422Z,98199.00
2018-09-28T00:44:30.948Z,98199.00
2018-09-28T00:47:01.381Z,98198.00
2018-09-28T00:49:31.877Z,98191.00
2018-09-28T00:52:02.304Z,98187.00
2018-09-28T00:54:32.734Z,98178.00
2018-09-28T00:57:03.458Z,98175.00
2018-09-28T00:59:34.159Z,98177.00
2018-09-28T01:02:04.529Z,98166.00
2018-09-28T01:04:35.022Z,98170.00
2018-09-28T01:07:05.251Z,98164.00
2018-09-28T01:09:35.727Z,98165.00
2018-09-28T01:12:06.109Z,98159.00
2018-09-28T01:14:36.742Z,98155.00
2018-09-28T01:17:07.058Z,98156.00
2018-09-28T01:19:37.534Z,98159.00
2018-09-28T01:22:07.897Z,98151.00
2018-09-28T01:24:38.372Z,98161.00
2018-09-28T01:27:09.049Z,98158.00
2018-09-28T01:29:39.508Z,98158.00
2018-09-28T01:32:09.919Z,98162.00
2018-09-28T01:34:40.385Z,98158.00
2018-09-28T01:37:10.779Z,98160.00
2018-09-28T01:39:41.411Z,98163.00
2018-09-28T01:42:11.911Z,98163.00
2018-09-28T01:44:42.502Z,98165.00
2018-09-28T01:47:12.828Z,98154.00
2018-09-28T01:49:43.380Z,98152.00
2018-09-28T01:52:13.654Z,98156.00
2018-09-28T01:54:50.535Z,98158.00
2018-09-28T01:57:20.980Z,98158.00
2018-09-28T01:59:51.516Z,98156.00
2018-09-28T02:02:21.747Z,98156.00
2018-09-28T02:04:52.262Z,98155.00
2018-09-28T02:07:22.744Z,98154.00
2018-09-28T02:09:53.146Z,98147.00
2018-09-28T02:12:23.745Z,98144.00
2018-09-28T02:14:54.286Z,98141.00
2018-09-28T02:17:24.790Z,98139.00
2018-09-28T02:19:55.435Z,98132.00
2018-09-28T02:22:25.687Z,98126.00
2018-09-28T02:24:56.296Z,98124.00
2018-09-28T02:27:26.859Z,98124.00
2018-09-28T02:29:57.364Z,98120.00
2018-09-28T02:32:28.031Z,98116.00
2018-09-28T02:34:58.329Z,98115.00
2018-09-28T02:37:28.681Z,98116.00
2018-09-28T02:39:59.176Z,98099.00
2018-09-28T02:42:29.484Z,98101.00
2018-09-28T02:45:00.024Z,98098.00
2018-09-28T02:47:30.497Z,98098.00
2018-09-28T02:50:00.912Z,98097.00
2018-09-28T02:52:31.454Z,98095.00
2018-09-28T02:55:01.903Z,98090.00
2018-09-28T02:57:32.259Z,98090.00
2018-09-28T03:00:02.829Z,98090.00
2018-09-28T03:02:33.578Z,98083.00
2018-09-28T03:05:04.100Z,98075.00
2018-09-28T03:07:34.635Z,98074.00
2018-09-28T03:10:05.212Z,98067.00
2018-09-28T03:12:35.905Z,98063.00
2018-09-28T03:15:06.276Z,98058.00
2018-09-28T03:17:36.720Z,98058.00
2018-09-28T03:20:07.457Z,98058.00
2018-09-28T03:22:37.851Z,98056.00
2018-09-28T03:25:08.493Z,98053.00
2018-09-28T03:27:39.029Z,98047.00
2018-09-28T03:30:09.686Z,98042.00
2018-09-28T03:32:40.245Z,98036.00
2018-09-28T03:35:10.685Z,98032.00
2018-09-28T03:37:41.105Z,98027.00
2018-09-28T03:40:11.740Z,98028.00
2018-09-28T03:42:42.166Z,98020.00
2018-09-28T03:45:12.729Z,98021.00
2018-09-28T03:47:45.745Z,98019.00
2018-09-28T03:50:16.391Z,98011.00
2018-09-28T03:52:46.854Z,98007.00
2018-09-28T03:55:17.504Z,98010.00
2018-09-28T03:57:47.936Z,98008.00
2018-09-28T04:00:18.489Z,98015.00
2018-09-28T04:02:48.977Z,98009.00
2018-09-28T04:05:19.522Z,98013.00
2018-09-28T04:07:49.916Z,98003.00
2018-09-28T04:10:20.476Z,98001.00
2018-09-28T04:12:50.884Z,97997.00
2018-09-28T04:15:21.147Z,97996.00
2018-09-28T04:17:51.518Z,97999.00
2018-09-28T04:20:22.093Z,97989.00
2018-09-28T04:22:52.556Z,97987.00
2018-09-28T04:25:23.111Z,97984.00
2018-09-28T04:27:53.375Z,97983.00
2018-09-28T04:30:23.900Z,97982.00
2018-09-28T04:32:54.387Z,97985.00
2018-09-28T04:35:24.772Z,97978.00
2018-09-28T04:38:00.135Z,97977.00
2018-09-28T04:40:30.634Z,97972.00
2018-09-28T04:43:01.248Z,97971.00
2018-09-28T04:45:31.693Z,97971.00
2018-09-28T04:48:02.146Z,97970.00
2018-09-28T04:50:32.726Z,97968.00
2018-09-28T04:53:03.019Z,97970.00
2018-09-28T04:55:33.559Z,97966.00
2018-09-28T04:58:04.057Z,97968.00
2018-09-28T05:00:34.514Z,97966.00
2018-09-28T05:03:04.680Z,97965.00
2018-09-28T05:05:35.092Z,97962.00
2018-09-28T05:08:05.583Z,97965.00
2018-09-28T05:10:36.235Z,97965.00
2018-09-28T05:13:06.522Z,97969.00
2018-09-28T05:15:36.980Z,97973.00
2018-09-28T05:18:07.576Z,97969.00
2018-09-28T05:20:38.057Z,97963.00
2018-09-28T05:23:08.473Z,97964.00
2018-09-28T05:25:39.023Z,97960.00
2018-09-28T05:28:09.584Z,97960.00
2018-09-28T05:30:44.973Z,97963.00
2018-09-28T05:33:10.291Z,97959.00
2018-09-28T05:35:40.889Z,97958.00
2018-09-28T05:38:11.354Z,97950.00
2018-09-28T05:40:41.982Z,97952.00
2018-09-28T05:43:12.571Z,97947.00
2018-09-28T05:45:42.842Z,97947.00
2018-09-28T05:48:13.178Z,97942.00
2018-09-28T05:50:43.673Z,97946.00
2018-09-28T05:53:14.055Z,97944.00
2018-09-28T05:55:44.631Z,97942.00
2018-09-28T05:58:19.957Z,97948.00
2018-09-28T06:00:55.392Z,97946.00
2018-09-28T06:03:25.789Z,97945.00
2018-09-28T06:06:00.565Z,97944.00
2018-09-28T06:08:31.142Z,97927.00
2018-09-28T06:11:01.756Z,97934.00
2018-09-28T06:13:32.231Z,97931.00
2018-09-28T06:16:02.797Z,97925.00
2018-09-28T06:18:33.146Z,97931.00
2018-09-28T06:21:03.529Z,97930.00
2018-09-28T06:23:34.040Z,97927.00
2018-09-28T06:26:04.547Z,97928.00
2018-09-28T06:28:34.799Z,97928.00
2018-09-28T06:31:05.221Z,97921.00
2018-09-28T06:33:35.594Z,97924.00
2018-09-28T06:36:06.162Z,97926.00
2018-09-28T06:38:36.888Z,97925.00
2018-09-28T06:41:07.382Z,97918.00
2018-09-28T06:43:37.632Z,97919.00
2018-09-28T06:46:07.760Z,97916.00
2018-09-28T06:48:38.430Z,97917.00
2018-09-28T06:51:08.837Z,97919.00
2018-09-28T06:53:39.292Z,97916.00
2018-09-28T06:56:09.671Z,97909.00
2018-09-28T06:58:40.230Z,97912.00
2018-09-28T07:01:10.710Z,97914.00
2018-09-28T07:03:41.278Z,97909.00
2018-09-28T07:06:11.875Z,97911.00
2018-09-28T07:08:42.322Z,97912.00
2018-09-28T07:11:12.745Z,97918.00
2018-09-28T07:13:43.197Z,97915.00
2018-09-28T07:16:14.438Z,97917.00
2018-09-28T07:18:44.750Z,97915.00
2018-09-28T07:21:15.288Z,97914.00
2018-09-28T07:23:45.675Z,97913.00
2018-09-28T07:26:16.233Z,97915.00
2018-09-28T07:28:46.790Z,97904.00
2018-09-28T07:31:17.030Z,97909.00
2018-09-28T07:33:47.147Z,97908.00
2018-09-28T07:36:17.635Z,97907.00
2018-09-28T07:38:48.091Z,97909.00
2018-09-28T07:41:18.535Z,97912.00
2018-09-28T07:43:48.859Z,97913.00
2018-09-28T07:46:19.303Z,97911.00
2018-09-28T07:48:49.477Z,97911.00
2018-09-28T07:51:19.856Z,97911.00
2018-09-28T07:53:50.134Z,97911.00
2018-09-28T07:56:20.443Z,97916.00
2018-09-28T07:58:50.850Z,97913.00
2018-09-28T08:01:21.229Z,97911.00
2018-09-28T08:03:51.538Z,97913.00
2018-09-28T08:06:21.997Z,97913.00
2018-09-28T08:08:52.215Z,97908.00
2018-09-28T08:11:22.541Z,97907.00
2018-09-28T08:13:52.821Z,97894.00
2018-09-28T08:16:23.169Z,97907.00
2018-09-28T08:18:53.536Z,97902.00
2018-09-28T08:21:24.077Z,97904.00
2018-09-28T08:23:54.594Z,97903.00
2018-09-28T08:26:24.884Z,97904.00
2018-09-28T08:28:58.186Z,97909.00
2018-09-28T08:31:28.540Z,97907.00
2018-09-28T08:33:58.759Z,97908.00
2018-09-28T08:36:29.276Z,97911.00
2018-09-28T08:38:59.501Z,97907.00
2018-09-28T08:41:30.111Z,97904.00
2018-09-28T08:44:00.340Z,97904.00
2018-09-28T08:46:33.808Z,97900.00
2018-09-28T08:49:04.761Z,97893.00
2018-09-28T08:51:35.069Z,97893.00
2018-09-28T08:54:05.547Z,97891.00
2018-09-28T08:56:35.927Z,97890.00
2018-09-28T08:59:06.361Z,97887.00
2018-09-28T09:01:36.653Z,97884.00
2018-09-28T09:04:07.039Z,97882.00
2018-09-28T09:06:37.503Z,97875.00
2018-09-28T09:09:11.125Z,97878.00
2018-09-28T09:11:41.376Z,97876.00
2018-09-28T09:14:11.843Z,97871.00
2018-09-28T09:16:42.353Z,97873.00
2018-09-28T09:19:13.044Z,97864.00
2018-09-28T09:21:43.600Z,97867.00
2018-09-28T09:24:14.028Z,97863.00
2018-09-28T09:26:44.369Z,97857.00
2018-09-28T09:29:14.708Z,97862.00
2018-09-28T09:31:44.979Z,97856.00
2018-09-28T09:34:15.364Z,97858.00
2018-09-28T09:36:45.852Z,97854.00
2018-09-28T09:39:16.385Z,97854.00
2018-09-28T09:41:46.791Z,97852.00
2018-09-28T09:44:17.161Z,97841.00
2018-09-28T09:46:47.535Z,97843.00
2018-09-28T09:49:17.881Z,97840.00
2018-09-28T09:51:48.315Z,97845.00
2018-09-28T09:54:18.760Z,97833.00
2018-09-28T09:56:49.331Z,97836.00
2018-09-28T09:59:19.940Z,97823.00
2018-09-28T10:01:55.388Z,97826.00
2018-09-28T10:04:25.970Z,97820.00
2018-09-28T10:06:56.347Z,97818.00
2018-09-28T10:09:26.644Z,97815.00
2018-09-28T10:11:57.090Z,97818.00
2018-09-28T10:14:27.620Z,97816.00
2018-09-28T10:16:58.442Z,97815.00
2018-09-28T10:19:28.698Z,97804.00
2018-09-28T10:21:59.069Z,97805.00
2018-09-28T10:24:29.435Z,97799.00
2018-09-28T10:27:00.075Z,97795.00
2018-09-28T10:29:30.355Z,97793.00
2018-09-28T10:32:00.688Z,97789.00
2018-09-28T10:34:31.178Z,97790.00
2018-09-28T10:37:01.671Z,97787.00
2018-09-28T10:39:32.046Z,97785.00
2018-09-28T10:42:02.365Z,97785.00
2018-09-28T10:44:32.764Z,97782.00
2018-09-28T10:47:03.265Z,97774.00
2018-09-28T10:49:33.861Z,97767.00
2018-09-28T10:52:04.497Z,97767.00
2018-09-28T10:54:35.029Z,97760.00
2018-09-28T10:57:05.293Z,97752.00
2018-09-28T10:59:35.738Z,97751.00
2018-09-28T11:02:06.206Z,97747.00
2018-09-28T11:04:36.676Z,97740.00
2018-09-28T11:07:07.075Z,97736.00
2018-09-28T11:09:37.532Z,97730.00
2018-09-28T11:12:08.332Z,97724.00
2018-09-28T11:14:38.755Z,97719.00
2018-09-28T11:17:09.106Z,97715.00
2018-09-28T11:19:39.348Z,97707.00
2018-09-28T11:22:09.863Z,97708.00
2018-09-28T11:24:40.347Z,97702.00
2018-09-28T11:27:10.692Z,97704.00
2018-09-28T11:29:40.969Z,97697.00
2018-09-28T11:32:11.332Z,97695.00
2018-09-28T11:34:41.679Z,97699.00
2018-09-28T11:37:12.217Z,97695.00
2018-09-28T11:39:42.690Z,97694.00
2018-09-28T11:42:12.995Z,97695.00
2018-09-28T11:44:43.372Z,97695.00
2018-09-28T11:47:13.746Z,97696.00
2018-09-28T11:49:44.195Z,97698.00
2018-09-28T11:52:14.638Z,97690.00
2018-09-28T11:54:44.915Z,97683.00
2018-09-28T11:57:15.503Z,97686.00
2018-09-28T11:59:45.908Z,97691.00
2018-09-28T12:02:16.401Z,97685.00
2018-09-28T12:04:46.642Z,97684.00
2018-09-28T12:07:17.128Z,97683.00
2018-09-28T12:09:47.438Z,97676.00
2018-09-28T12:12:17.866Z,97680.00
2018-09-28T12:14:48.357Z,97673.00
2018-09-28T12:17:19.060Z,97672.00
2018-09-28T12:19:49.395Z,97667.00
2018-09-28T12:22:19.786Z,97659.00
2018-09-28T12:24:50.320Z,97657.00
2018-09-28T12:27:20.748Z,97654.00
2018-09-28T12:29:51.147Z,97647.00
2018-09-28T12:32:21.495Z,97651.00
2018-09-28T12:34:51.809Z,97645.00
2018-09-28T12:37:22.911Z,97638.00
2018-09-28T12:39:53.196Z,97638.00
2018-09-28T12:42:23.810Z,97633.00
2018-09-28T12:44:54.102Z,97635.00
2018-09-28T12:47:24.363Z,97624.00
2018-09-28T12:49:54.628Z,97625.00
2018-09-28T12:52:25.040Z,97626.00
2018-09-28T12:54:55.573Z,97614.00
2018-09-28T12:57:26.128Z,97612.00
2018-09-28T12:59:57.344Z,97604.00
2018-09-28T13:02:28.101Z,97606.00
2018-09-28T13:04:58.383Z,97597.00
2018-09-28T13:07:29.030Z,97598.00
2018-09-28T13:09:59.408Z,97590.00
2018-09-28T13:12:30.019Z,97594.00
2018-09-28T13:15:00.759Z,97592.00
2018-09-28T13:17:31.150Z,97583.00
2018-09-28T13:20:01.651Z,97574.00
2018-09-28T13:22:32.118Z,97574.00
2018-09-28T13:25:02.397Z,97573.00
2018-09-28T13:27:32.852Z,97569.00
2018-09-28T13:30:03.304Z,97565.00
2018-09-28T13:32:33.754Z,97557.00
2018-09-28T13:35:04.264Z,97560.00
2018-09-28T13:37:34.626Z,97552.00
2018-09-28T13:40:05.086Z,97557.00
2018-09-28T13:42:35.554Z,97560.00
2018-09-28T13:45:06.297Z,97565.00
2018-09-28T13:47:36.604Z,97556.00
2018-09-28T13:50:06.662Z,97562.00
2018-09-28T13:52:37.121Z,97554.00
2018-09-28T13:55:07.951Z,97553.00
2018-09-28T13:57:38.452Z,97545.00
2018-09-28T14:00:09.174Z,97544.00
2018-09-28T14:02:39.702Z,97546.00
2018-09-28T14:05:10.008Z,97544.00
2018-09-28T14:07:40.381Z,97538.00
2018-09-28T14:10:10.550Z,97544.00
2018-09-28T14:12:40.960Z,97534.00
2018-09-28T14:15:11.431Z,97531.00
2018-09-28T14:17:41.872Z,97536.00
2018-09-28T14:20:12.205Z,97523.00
2018-09-28T14:22:42.715Z,97525.00
2018-09-28T14:25:13.143Z,97528.00
2018-09-28T14:27:43.703Z,97529.00
2018-09-28T14:30:14.325Z,97524.00
2018-09-28T14:32:44.794Z,97521.00
2018-09-28T14:35:14.930Z,97519.00
2018-09-28T14:37:45.355Z,97514.00
2018-09-28T14:40:15.712Z,97513.00
2018-09-28T14:42:46.186Z,97514.00
2018-09-28T14:45:16.504Z,97514.00
2018-09-28T14:47:46.872Z,97516.00
2018-09-28T14:50:17.336Z,97509.00
2018-09-28T14:52:47.737Z,97505.00
2018-09-28T14:55:18.367Z,97509.00
2018-09-28T14:57:48.902Z,97510.00
2018-09-28T15:00:19.221Z,97508.00
2018-09-28T15:02:49.530Z,97504.00
2018-09-28T15:05:19.764Z,97502.00
2018-09-28T15:07:54.030Z,97505.00
2018-09-28T15:10:24.539Z,97507.00
2018-09-28T15:12:55.004Z,97506.00
2018-09-28T15:15:25.373Z,97506.00
2018-09-28T15:17:55.711Z,97502.00
2018-09-28T15:20:26.186Z,97505.00
2018-09-28T15:22:56.660Z,97505.00
2018-09-28T15:25:26.919Z,97505.00
2018-09-28T15:27:57.360Z,97510.00
2018-09-28T15:30:27.802Z,97504.00
2018-09-28T15:32:58.151Z,97507.00
2018-09-28T15:35:28.601Z,97500.00
2018-09-28T15:37:59.069Z,97509.00
2018-09-28T15:40:29.374Z,97507.00
2018-09-28T15:42:59.731Z,97500.00
2018-09-28T15:45:30.139Z,97506.00
2018-09-28T15:48:00.732Z,97499.00
2018-09-28T15:50:31.263Z,97504.00
2018-09-28T15:53:01.678Z,97508.00
2018-09-28T15:55:31.950Z,97508.00
2018-09-28T15:58:02.556Z,97516.00
2018-09-28T16:00:32.931Z,97514.00
2018-09-28T16:03:03.360Z,97519.00
2018-09-28T16:05:33.724Z,97513.00
2018-09-28T16:08:04.738Z,97514.00
2018-09-28T16:10:35.182Z,97518.00
2018-09-28T16:13:05.716Z,97523.00
2018-09-28T16:15:36.080Z,97525.00
2018-09-28T16:18:06.797Z,97524.00
2018-09-28T16:20:37.308Z,97530.00
2018-09-28T16:23:07.631Z,97525.00
2018-09-28T16:25:38.157Z,97526.00
2018-09-28T16:28:08.643Z,97529.00
2018-09-28T16:30:38.938Z,97534.00
2018-09-28T16:33:09.402Z,97531.00
2018-09-28T16:35:40.421Z,97537.00
2018-09-28T16:38:10.931Z,97536.00
2018-09-28T16:40:41.395Z,97541.00
2018-09-28T16:43:11.841Z,97546.00
2018-09-28T16:45:42.189Z,97548.00
2018-09-28T16:48:12.618Z,97550.00
2018-09-28T16:50:42.940Z,97553.00
2018-09-28T16:53:13.524Z,97558.00
2018-09-28T16:55:43.868Z,97559.00
2018-09-28T16:58:14.953Z,97558.00
2018-09-28T17:00:45.474Z,97559.00
2018-09-28T17:03:15.889Z,97561.00
2018-09-28T17:05:46.171Z,97562.00
2018-09-28T17:08:17.168Z,97565.00
2018-09-28T17:10:47.616Z,97573.00
2018-09-28T17:13:18.121Z,97578.00
2018-09-28T17:15:48.752Z,97578.00
2018-09-28T17:18:19.103Z,97583.00
2018-09-28T17:20:49.689Z,97585.00
2018-09-28T17:23:20.189Z,97589.00
2018-09-28T17:25:50.568Z,97587.00
2018-09-28T17:28:20.850Z,97600.00
2018-09-28T17:30:52.111Z,97601.00
2018-09-28T17:33:22.446Z,97609.00
2018-09-28T17:35:52.889Z,97602.00
2018-09-28T17:38:24.822Z,97612.00
2018-09-28T17:40:55.169Z,97616.00
2018-09-28T17:43:25.776Z,97623.00
2018-09-28T17:45:56.215Z,97630.00
2018-09-28T17:48:27.578Z,97632.00
2018-09-28T17:50:58.089Z,97635.00
2018-09-28T17:53:28.479Z,97642.00
2018-09-28T17:55:58.912Z,97643.00
2018-09-28T17:58:29.794Z,97646.00
2018-09-28T18:01:00.579Z,97653.00
2018-09-28T18:03:31.136Z,97657.00
2018-09-28T18:06:01.462Z,97661.00
2018-09-28T18:08:31.819Z,97657.00
2018-09-28T18:11:02.393Z,97667.00
2018-09-28T18:13:32.808Z,97666.00
2018-09-28T18:16:03.260Z,97674.00
2018-09-28T18:18:33.941Z,97673.00
2018-09-28T18:21:04.454Z,97674.00
2018-09-28T18:23:34.911Z,97679.00
2018-09-28T18:26:05.279Z,97683.00
2018-09-28T18:28:36.150Z,97686.00
2018-09-28T18:31:06.595Z,97681.00
2018-09-28T18:33:37.312Z,97683.00
2018-09-28T18:36:07.841Z,97686.00
2018-09-28T18:38:38.137Z,97686.00
2018-09-28T18:41:08.540Z,97690.00
2018-09-28T18:43:39.471Z,97690.00
2018-09-28T18:46:09.828Z,97696.00
2018-09-28T18:48:40.345Z,97695.00
2018-09-28T18:51:10.806Z,97693.00
2018-09-28T18:53:41.032Z,97694.00
2018-09-28T18:56:11.565Z,97698.00
2018-09-28T18:58:42.027Z,97695.00
2018-09-28T19:01:12.591Z,97700.00
2018-09-28T19:03:43.292Z,97702.00
2018-09-28T19:06:13.644Z,97709.00
2018-09-28T19:08:44.029Z,97714.00
2018-09-28T19:11:14.601Z,97717.00
2018-09-28T19:13:45.472Z,97719.00
2018-09-28T19:16:16.077Z,97719.00
2018-09-28T19:18:46.828Z,97727.00
2018-09-28T19:21:17.295Z,97726.00
2018-09-28T19:23:47.913Z,97727.00
2018-09-28T19:26:18.532Z,97728.00
2018-09-28T19:28:48.874Z,97729.00
2018-09-28T19:31:19.290Z,97729.00
2018-09-28T19:33:49.701Z,97731.00
2018-09-28T19:36:20.221Z,97734.00
2018-09-28T19:38:50.571Z,97737.00
2018-09-28T19:41:20.848Z,97742.00
2018-09-28T19:43:51.787Z,97748.00
2018-09-28T19:46:22.159Z,97749.00
2018-09-28T19:48:52.992Z,97751.00
2018-09-28T19:51:23.312Z,97749.00
2018-09-28T19:53:53.804Z,97737.00
2018-09-28T19:56:24.109Z,97752.00
2018-09-28T19:58:54.817Z,97751.00
2018-09-28T20:01:24.985Z,97755.00
2018-09-28T20:03:55.354Z,97754.00
2018-09-28T20:06:26.045Z,97757.00
2018-09-28T20:08:56.510Z,97757.00
2018-09-28T20:11:27.173Z,97755.00
2018-09-28T20:13:57.443Z,97758.00
2018-09-28T20:16:27.785Z,97755.00
2018-09-28T20:18:58.292Z,97755.00
2018-09-28T20:21:29.589Z,97758.00
2018-09-28T20:24:00.156Z,97753.00
2018-09-28T20:26:30.661Z,97756.00
2018-09-28T20:29:01.262Z,97757.00
2018-09-28T20:31:31.821Z,97757.00
2018-09-28T20:34:04.150Z,97761.00
2018-09-28T20:36:34.182Z,97757.00
2018-09-28T20:39:04.891Z,97759.00
2018-09-28T20:41:35.480Z,97766.00
2018-09-28T20:44:06.075Z,97765.00
2018-09-28T20:46:37.096Z,97768.00
2018-09-28T20:49:08.035Z,97771.00
2018-09-28T20:51:38.537Z,97776.00
2018-09-28T20:54:09.141Z,97771.00
2018-09-28T20:56:39.404Z,97771.00
2018-09-28T20:59:09.823Z,97766.00
2018-09-28T21:01:40.263Z,97773.00
2018-09-28T21:04:10.724Z,97774.00
2018-09-28T21:06:41.302Z,97775.00
2018-09-28T21:09:12.336Z,97773.00
2018-09-28T21:11:43.039Z,97768.00
2018-09-28T21:14:13.457Z,97771.00
2018-09-28T21:16:43.958Z,97775.00
2018-09-28T21:19:14.413Z,97772.00
2018-09-28T21:21:44.742Z,97778.00
2018-09-28T21:24:15.366Z,97775.00
2018-09-28T21:26:45.898Z,97777.00
2018-09-28T21:29:16.097Z,97773.00
2018-09-28T21:31:46.505Z,97777.00
2018-09-28T21:34:17.141Z,97773.00
2018-09-28T21:36:47.510Z,97777.00
2018-09-28T21:39:18.126Z,97779.00
2018-09-28T21:41:48.410Z,97784.00
2018-09-28T21:44:18.880Z,97786.00
2018-09-28T21:46:49.528Z,97780.00
2018-09-28T21:49:20.107Z,97779.00
2018-09-28T21:51:50.457Z,97787.00
2018-09-28T21:54:20.933Z,97784.00
2018-09-28T21:56:51.251Z,97778.00
2018-09-28T21:59:21.663Z,97771.00
2018-09-28T22:01:52.156Z,97783.00
2018-09-28T22:04:23.230Z,97790.00
2018-09-28T22:06:53.666Z,97788.00
2018-09-28T22:09:24.084Z,97790.00
2018-09-28T22:11:54.488Z,97788.00
2018-09-28T22:14:24.835Z,97779.00
2018-09-28T22:16:55.499Z,97781.00
2018-09-28T22:19:26.242Z,97782.00
2018-09-28T22:21:56.697Z,97783.00
2018-09-28T22:24:27.052Z,97781.00
2018-09-28T22:26:58.166Z,97767.00
2018-09-28T22:29:28.551Z,97764.00
2018-09-28T22:31:58.954Z,97762.00
2018-09-28T22:34:29.274Z,97774.00
2018-09-28T22:36:59.569Z,97784.00
2018-09-28T22:39:29.913Z,97786.00
2018-09-28T22:42:00.199Z,97776.00
2018-09-28T22:44:30.552Z,97778.00
2018-09-28T22:47:00.895Z,97774.00
2018-09-28T22:49:31.289Z,97780.00
2018-09-28T22:52:01.808Z,97781.00
2018-09-28T22:54:32.772Z,97784.00
2018-09-28T22:57:03.186Z,97781.00
2018-09-28T22:59:33.771Z,97783.00
2018-09-28T23:02:03.982Z,97785.00
2018-09-28T23:04:34.271Z,97789.00
2018-09-28T23:07:04.649Z,97790.00
2018-09-28T23:09:35.135Z,97796.00
2018-09-28T23:12:05.329Z,97798.00
2018-09-28T23:14:35.800Z,97804.00
2018-09-28T23:17:06.295Z,97810.00
2018-09-28T23:19:36.919Z,97811.00
2018-09-28T23:22:07.345Z,97810.00
2018-09-28T23:24:38.202Z,97812.00
2018-09-28T23:27:08.706Z,97814.00
2018-09-28T23:29:39.155Z,97821.00
2018-09-28T23:32:09.554Z,97828.00
2018-09-28T23:34:40.072Z,97820.00
2018-09-28T23:37:10.460Z,97822.00
2018-09-28T23:39:40.891Z,97824.00
2018-09-28T23:42:11.282Z,97820.00
2018-09-28T23:44:41.703Z,97826.00
2018-09-28T23:47:12.059Z,97815.00
2018-09-28T23:49:42.494Z,97822.00
2018-09-28T23:52:12.891Z,97833.00
2018-09-28T23:54:43.198Z,97828.00
2018-09-28T23:57:13.748Z,97829.00
2018-09-28T23:59:44.197Z,97837.00
